createdAt,value
2022-08-29T00:01:23.324Z,28.27
2022-08-29T00:03:50.714Z,28.32
2022-08-29T00:06:18.367Z,28.42
2022-08-29T00:08:45.443Z,28.52
2022-08-29T00:11:13.595Z,28.59
2022-08-29T00:13:40.932Z,28.64
2022-08-29T00:16:08.930Z,28.67
2022-08-29T00:18:36.481Z,28.64
2022-08-29T00:21:04.621Z,28.57
2022-08-29T00:23:31.944Z,28.55
2022-08-29T00:25:59.162Z,28.59
2022-08-29T00:28:26.615Z,28.66
2022-08-29T00:30:53.811Z,28.45
2022-08-29T00:33:21.191Z,28.39
2022-08-29T00:35:48.248Z,28.44
2022-08-29T00:38:18.249Z,28.50
2022-08-29T00:40:53.019Z,28.55
2022-08-29T00:43:26.028Z,28.51
2022-08-29T00:46:08.343Z,28.56
2022-08-29T00:48:39.253Z,28.54
2022-08-29T00:51:12.968Z,28.57
2022-08-29T00:53:44.915Z,28.56
2022-08-29T00:56:15.000Z,28.52
2022-08-29T00:58:50.266Z,28.58
2022-08-29T01:01:17.862Z,28.57
2022-08-29T01:03:46.427Z,28.44
2022-08-29T01:06:14.017Z,28.45
2022-08-29T01:08:42.496Z,28.46
2022-08-29T01:11:32.641Z,28.46
2022-08-29T01:14:01.444Z,28.49
2022-08-29T01:16:30.203Z,28.45
2022-08-29T01:19:03.614Z,28.48
2022-08-29T01:21:30.781Z,28.47
2022-08-29T01:24:10.381Z,28.46
2022-08-29T01:26:37.697Z,28.25
2022-08-29T01:29:05.181Z,28.31
2022-08-29T01:31:56.247Z,28.33
2022-08-29T01:34:27.046Z,28.33
2022-08-29T01:37:00.484Z,28.34
2022-08-29T01:39:31.511Z,28.35
2022-08-29T01:42:04.076Z,28.23
2022-08-29T01:44:31.744Z,28.31
2022-08-29T01:47:03.192Z,28.17
2022-08-29T01:49:33.231Z,28.18
2022-08-29T01:52:01.931Z,28.19
2022-08-29T01:54:30.391Z,28.21
2022-08-29T01:56:57.764Z,28.20
2022-08-29T01:59:28.183Z,28.27
2022-08-29T02:02:18.470Z,28.23
2022-08-29T02:04:47.312Z,28.24
2022-08-29T02:07:17.723Z,28.27
2022-08-29T02:09:46.081Z,28.13
2022-08-29T02:12:14.955Z,28.11
2022-08-29T02:14:42.925Z,28.12
2022-08-29T02:17:10.413Z,28.15
2022-08-29T02:19:39.030Z,28.04
2022-08-29T02:22:08.140Z,28.10
2022-08-29T02:24:35.400Z,28.10
2022-08-29T02:27:02.767Z,28.11
2022-08-29T02:29:37.044Z,28.13
2022-08-29T02:32:14.910Z,28.11
2022-08-29T02:34:47.768Z,28.13
2022-08-29T02:37:16.385Z,28.08
2022-08-29T02:39:43.659Z,27.94
2022-08-29T02:42:10.912Z,27.99
2022-08-29T02:44:38.430Z,27.98
2022-08-29T02:47:05.846Z,28.05
2022-08-29T02:49:32.976Z,28.05
2022-08-29T02:52:02.579Z,28.08
2022-08-29T02:54:29.941Z,28.08
2022-08-29T02:56:57.153Z,28.09
2022-08-29T02:59:24.228Z,28.06
2022-08-29T03:01:53.763Z,28.02
2022-08-29T03:04:21.093Z,28.04
2022-08-29T03:06:48.312Z,28.03
2022-08-29T03:09:15.476Z,28.04
2022-08-29T03:11:42.743Z,28.03
2022-08-29T03:14:09.845Z,28.04
2022-08-29T03:16:37.193Z,28.05
2022-08-29T03:19:04.353Z,28.02
2022-08-29T03:21:33.495Z,28.01
2022-08-29T03:24:00.637Z,27.98
2022-08-29T03:26:27.755Z,27.97
2022-08-29T03:28:54.958Z,27.96
2022-08-29T03:31:22.358Z,27.85
2022-08-29T03:33:49.941Z,27.76
2022-08-29T03:36:17.169Z,27.76
2022-08-29T03:38:46.761Z,27.87
2022-08-29T03:41:25.560Z,27.82
2022-08-29T03:43:55.441Z,27.73
2022-08-29T03:46:22.951Z,27.58
2022-08-29T03:48:50.251Z,27.61
2022-08-29T03:51:18.772Z,27.61
2022-08-29T03:53:46.915Z,27.67
2022-08-29T03:56:18.913Z,27.60
2022-08-29T03:58:52.541Z,27.61
2022-08-29T04:01:24.655Z,27.59
2022-08-29T04:03:52.432Z,27.60
2022-08-29T04:06:20.351Z,27.61
2022-08-29T04:08:48.116Z,27.67
2022-08-29T04:11:16.872Z,27.69
2022-08-29T04:13:44.429Z,27.73
2022-08-29T04:16:14.232Z,27.74
2022-08-29T04:18:41.737Z,27.76
2022-08-29T04:21:09.952Z,27.75
2022-08-29T04:23:38.540Z,27.79
2022-08-29T04:26:34.877Z,27.79
2022-08-29T04:28:59.200Z,27.74
2022-08-29T04:31:26.506Z,27.75
2022-08-29T04:33:53.701Z,27.70
2022-08-29T04:36:21.068Z,27.75
2022-08-29T04:38:48.248Z,27.75
2022-08-29T04:41:15.493Z,27.77
2022-08-29T04:43:45.526Z,27.79
2022-08-29T04:46:23.582Z,27.77
2022-08-29T04:48:53.209Z,27.66
2022-08-29T04:51:21.436Z,27.61
2022-08-29T04:53:51.060Z,27.62
2022-08-29T04:56:18.883Z,27.61
2022-08-29T04:58:47.355Z,27.62
2022-08-29T05:01:16.543Z,27.54
2022-08-29T05:03:44.251Z,27.41
2022-08-29T05:06:14.185Z,27.43
2022-08-29T05:08:43.463Z,27.25
2022-08-29T05:11:13.720Z,27.15
2022-08-29T05:13:42.407Z,27.26
2022-08-29T05:16:11.869Z,27.15
2022-08-29T05:18:39.929Z,27.14
2022-08-29T05:21:07.818Z,27.25
2022-08-29T05:23:35.026Z,27.26
2022-08-29T05:26:04.569Z,27.26
2022-08-29T05:28:33.808Z,27.43
2022-08-29T05:31:01.147Z,27.35
2022-08-29T05:33:28.478Z,27.30
2022-08-29T05:35:57.775Z,27.21
2022-08-29T05:38:25.102Z,27.13
2022-08-29T05:40:52.416Z,27.25
2022-08-29T05:43:19.897Z,27.39
2022-08-29T05:45:47.181Z,27.54
2022-08-29T05:48:15.246Z,27.62
2022-08-29T05:50:44.236Z,27.57
2022-08-29T05:53:14.358Z,27.59
2022-08-29T05:55:44.528Z,27.54
2022-08-29T05:58:12.254Z,27.56
2022-08-29T06:00:41.023Z,27.35
2022-08-29T06:03:10.663Z,27.52
2022-08-29T06:05:38.839Z,27.45
2022-08-29T06:08:07.262Z,27.41
2022-08-29T06:10:34.843Z,27.49
2022-08-29T06:13:02.127Z,27.13
2022-08-29T06:15:29.927Z,26.97
2022-08-29T06:17:57.166Z,27.01
2022-08-29T06:20:24.364Z,26.79
2022-08-29T06:22:51.557Z,26.95
2022-08-29T06:28:05.868Z,27.06
2022-08-29T06:30:33.780Z,27.09
2022-08-29T06:33:01.913Z,26.93
2022-08-29T06:35:29.211Z,27.07
2022-08-29T06:37:56.412Z,27.24
2022-08-29T06:40:23.652Z,27.41
2022-08-29T06:42:50.947Z,27.47
2022-08-29T06:45:18.359Z,27.49
2022-08-29T06:47:47.774Z,27.58
2022-08-29T06:50:17.020Z,27.67
2022-08-29T06:52:47.188Z,27.67
2022-08-29T06:55:14.859Z,27.70
2022-08-29T06:57:45.600Z,27.67
2022-08-29T07:00:21.402Z,27.75
2022-08-29T07:02:52.987Z,27.82
2022-08-29T07:05:22.038Z,27.93
2022-08-29T07:07:49.947Z,27.93
2022-08-29T07:10:22.292Z,28.08
2022-08-29T07:12:51.624Z,28.00
2022-08-29T07:15:20.092Z,28.08
2022-08-29T07:17:47.665Z,28.09
2022-08-29T07:20:16.215Z,28.15
2022-08-29T07:22:43.548Z,28.22
2022-08-29T07:25:10.731Z,28.25
2022-08-29T07:27:39.087Z,28.28
2022-08-29T07:30:07.018Z,28.31
2022-08-29T07:32:34.238Z,28.19
2022-08-29T07:35:01.415Z,28.12
2022-08-29T07:37:28.601Z,28.20
2022-08-29T07:39:56.011Z,28.35
2022-08-29T07:42:23.429Z,28.47
2022-08-29T07:44:50.635Z,28.60
2022-08-29T07:47:17.822Z,28.72
2022-08-29T07:49:45.012Z,28.81
2022-08-29T07:52:12.224Z,28.92
2022-08-29T07:54:39.271Z,28.92
2022-08-29T07:57:06.510Z,28.95
2022-08-29T07:59:33.777Z,29.00
2022-08-29T08:02:01.048Z,29.00
2022-08-29T08:04:28.420Z,29.07
2022-08-29T08:06:55.920Z,29.15
2022-08-29T08:09:23.007Z,29.25
2022-08-29T08:11:50.647Z,29.40
2022-08-29T08:14:17.967Z,29.52
2022-08-29T08:16:45.176Z,29.64
2022-08-29T08:19:14.374Z,29.68
2022-08-29T08:21:49.420Z,29.72
2022-08-29T08:24:19.771Z,29.63
2022-08-29T08:26:49.180Z,29.57
2022-08-29T08:29:16.903Z,29.39
2022-08-29T08:31:45.849Z,29.43
2022-08-29T08:34:15.675Z,29.30
2022-08-29T08:36:44.981Z,29.24
2022-08-29T08:39:13.296Z,29.34
2022-08-29T08:41:54.793Z,29.44
2022-08-29T08:44:21.820Z,29.27
2022-08-29T08:46:52.598Z,29.29
2022-08-29T08:49:47.686Z,29.22
2022-08-29T08:52:53.438Z,29.30
2022-08-29T08:55:32.009Z,29.35
2022-08-29T08:58:26.139Z,29.46
2022-08-29T09:01:03.610Z,29.36
2022-08-29T09:04:04.198Z,29.45
2022-08-29T09:06:56.133Z,29.44
2022-08-29T09:09:38.982Z,29.49
2022-08-29T09:12:15.822Z,29.54
2022-08-29T09:15:09.565Z,29.53
2022-08-29T09:17:44.447Z,29.68
2022-08-29T09:20:22.353Z,29.76
2022-08-29T09:23:05.966Z,29.99
2022-08-29T09:25:36.200Z,30.22
2022-08-29T09:28:08.724Z,30.30
2022-08-29T09:30:39.082Z,30.46
2022-08-29T09:33:10.432Z,30.72
2022-08-29T09:35:42.192Z,30.85
2022-08-29T09:38:10.974Z,30.96
2022-08-29T09:40:58.425Z,31.10
2022-08-29T09:43:50.504Z,31.31
2022-08-29T09:46:26.895Z,31.45
2022-08-29T09:49:00.205Z,31.55
2022-08-29T09:51:31.796Z,31.63
2022-08-29T09:54:26.497Z,31.74
2022-08-29T09:57:09.168Z,31.90
2022-08-29T09:59:41.849Z,32.06
2022-08-29T10:02:28.823Z,32.04
2022-08-29T10:05:01.476Z,32.13
2022-08-29T10:07:47.712Z,32.18
2022-08-29T10:10:19.245Z,32.06
2022-08-29T10:13:00.508Z,31.85
2022-08-29T10:15:49.909Z,31.87
2022-08-29T10:18:49.724Z,31.88
2022-08-29T10:21:31.861Z,32.09
2022-08-29T10:24:08.604Z,32.07
2022-08-29T10:26:50.992Z,32.02
2022-08-29T10:29:31.865Z,32.06
2022-08-29T10:32:23.932Z,32.02
2022-08-29T10:35:16.091Z,32.00
2022-08-29T10:38:04.924Z,32.03
2022-08-29T10:40:49.664Z,32.04
2022-08-29T10:43:46.215Z,32.06
2022-08-29T10:46:33.072Z,32.08
2022-08-29T10:49:13.794Z,32.08
2022-08-29T10:51:51.774Z,32.11
2022-08-29T10:54:42.094Z,32.12
2022-08-29T10:57:09.739Z,32.06
2022-08-29T11:00:02.842Z,32.04
2022-08-29T11:02:47.372Z,32.21
2022-08-29T11:05:24.944Z,32.24
2022-08-29T11:08:05.753Z,32.22
2022-08-29T11:10:40.621Z,32.17
2022-08-29T11:13:19.285Z,32.19
2022-08-29T11:16:12.974Z,32.35
2022-08-29T11:18:44.997Z,32.50
2022-08-29T11:21:19.182Z,32.49
2022-08-29T11:23:48.172Z,32.50
2022-08-29T11:26:31.824Z,32.61
2022-08-29T11:29:05.307Z,32.73
2022-08-29T11:31:35.544Z,32.71
2022-08-29T11:34:28.650Z,32.74
2022-08-29T11:37:26.490Z,32.75
2022-08-29T11:40:15.085Z,32.97
2022-08-29T11:42:52.752Z,33.14
2022-08-29T11:45:36.587Z,33.21
2022-08-29T11:48:10.492Z,33.16
2022-08-29T11:50:39.366Z,33.09
2022-08-29T11:53:22.701Z,33.25
2022-08-29T11:56:14.437Z,33.26
2022-08-29T11:58:50.382Z,33.26
2022-08-29T12:01:36.022Z,33.21
2022-08-29T12:04:06.564Z,33.16
2022-08-29T12:06:51.547Z,33.10
2022-08-29T12:09:37.395Z,33.22
2022-08-29T12:12:04.649Z,33.21
2022-08-29T12:14:39.622Z,33.21
2022-08-29T12:17:51.277Z,33.34
2022-08-29T12:20:32.187Z,33.31
2022-08-29T12:23:03.835Z,33.33
2022-08-29T12:25:43.801Z,33.24
2022-08-29T12:28:31.350Z,32.95
2022-08-29T12:30:59.445Z,32.93
2022-08-29T12:33:43.501Z,32.90
2022-08-29T12:36:31.437Z,32.76
2022-08-29T12:39:04.742Z,32.78
2022-08-29T12:42:02.786Z,32.73
2022-08-29T12:44:40.528Z,32.56
2022-08-29T12:47:24.115Z,32.50
2022-08-29T12:49:56.287Z,32.37
2022-08-29T12:52:28.271Z,32.06
2022-08-29T12:54:57.892Z,32.10
2022-08-29T12:57:37.020Z,32.06
2022-08-29T13:00:13.827Z,31.99
2022-08-29T13:02:41.186Z,31.80
2022-08-29T13:05:28.361Z,31.75
2022-08-29T13:07:59.410Z,31.68
2022-08-29T13:10:27.893Z,31.63
2022-08-29T13:13:15.828Z,31.58
2022-08-29T13:15:42.976Z,31.58
2022-08-29T13:18:16.591Z,31.62
2022-08-29T13:21:07.859Z,31.73
2022-08-29T13:23:39.040Z,31.66
2022-08-29T13:26:12.821Z,31.67
2022-08-29T13:28:47.603Z,31.61
2022-08-29T13:31:14.752Z,31.64
2022-08-29T13:33:50.923Z,31.72
2022-08-29T13:36:27.447Z,31.77
2022-08-29T13:39:21.820Z,31.87
2022-08-29T13:42:02.014Z,31.91
2022-08-29T13:44:33.918Z,31.96
2022-08-29T13:47:04.399Z,31.97
2022-08-29T13:49:34.352Z,32.05
2022-08-29T13:52:03.051Z,32.21
2022-08-29T13:54:31.424Z,32.30
2022-08-29T13:57:01.220Z,32.21
2022-08-29T13:59:34.201Z,32.10
2022-08-29T14:02:08.897Z,32.12
2022-08-29T14:04:39.201Z,32.26
2022-08-29T14:07:21.422Z,32.42
2022-08-29T14:09:49.859Z,32.62
2022-08-29T14:12:17.892Z,32.67
2022-08-29T14:14:45.428Z,32.72
2022-08-29T14:17:18.494Z,32.70
2022-08-29T14:19:47.332Z,32.64
2022-08-29T14:22:14.752Z,32.63
2022-08-29T14:24:42.578Z,32.70
2022-08-29T14:27:09.919Z,32.57
2022-08-29T14:29:37.660Z,32.54
2022-08-29T14:32:05.058Z,32.54
2022-08-29T14:34:33.116Z,32.50
2022-08-29T14:37:02.044Z,32.59
2022-08-29T14:39:29.610Z,32.61
2022-08-29T14:41:56.911Z,32.66
2022-08-29T14:44:24.057Z,32.67
2022-08-29T14:46:51.853Z,32.61
2022-08-29T14:49:19.704Z,32.66
2022-08-29T14:51:47.418Z,32.60
2022-08-29T14:54:15.035Z,32.69
2022-08-29T14:56:50.680Z,32.80
2022-08-29T14:59:20.204Z,32.80
2022-08-29T15:01:53.866Z,32.84
2022-08-29T15:04:35.441Z,32.84
2022-08-29T15:07:08.960Z,33.00
2022-08-29T15:09:36.675Z,33.10
2022-08-29T15:12:04.585Z,33.14
2022-08-29T15:14:32.152Z,33.14
2022-08-29T15:16:59.280Z,33.17
2022-08-29T15:22:13.692Z,33.33
2022-08-29T15:24:41.503Z,33.38
2022-08-29T15:27:09.594Z,33.39
2022-08-29T15:29:37.831Z,33.44
2022-08-29T15:32:05.304Z,33.54
2022-08-29T15:34:33.084Z,33.66
2022-08-29T15:37:01.701Z,33.76
2022-08-29T15:39:29.740Z,33.70
2022-08-29T15:41:59.896Z,33.34
2022-08-29T15:44:28.444Z,33.17
2022-08-29T15:46:56.722Z,33.13
2022-08-29T15:49:26.581Z,32.92
2022-08-29T15:51:55.292Z,32.92
2022-08-29T15:54:23.682Z,32.85
2022-08-29T15:56:51.249Z,32.76
2022-08-29T15:59:27.748Z,32.62
2022-08-29T16:02:03.887Z,32.61
2022-08-29T16:04:31.459Z,32.65
2022-08-29T16:06:58.821Z,32.66
2022-08-29T16:09:25.975Z,32.62
2022-08-29T16:11:53.322Z,32.43
2022-08-29T16:17:09.764Z,32.39
2022-08-29T16:19:42.047Z,32.38
2022-08-29T16:22:10.158Z,32.41
2022-08-29T16:24:38.383Z,32.37
2022-08-29T16:27:05.576Z,32.20
2022-08-29T16:29:34.055Z,32.17
2022-08-29T16:32:01.495Z,32.23
2022-08-29T16:34:29.151Z,32.23
2022-08-29T16:37:00.504Z,32.04
2022-08-29T16:39:29.065Z,31.97
2022-08-29T16:41:56.859Z,31.98
2022-08-29T16:44:24.557Z,32.06
2022-08-29T16:46:52.281Z,32.04
2022-08-29T16:49:19.688Z,31.96
2022-08-29T16:51:47.045Z,31.90
2022-08-29T16:54:15.371Z,31.83
2022-08-29T16:56:43.302Z,31.73
2022-08-29T16:59:12.573Z,31.70
2022-08-29T17:01:45.776Z,31.57
2022-08-29T17:04:19.526Z,31.48
2022-08-29T17:06:48.289Z,31.45
2022-08-29T17:09:17.872Z,31.48
2022-08-29T17:11:45.699Z,31.45
2022-08-29T17:14:13.781Z,31.50
2022-08-29T17:16:42.673Z,31.48
2022-08-29T17:19:09.840Z,31.49
2022-08-29T17:21:37.728Z,31.52
2022-08-29T17:24:09.349Z,31.50
2022-08-29T17:26:38.512Z,31.41
2022-08-29T17:29:08.867Z,31.33
2022-08-29T17:31:38.798Z,31.24
2022-08-29T17:34:07.470Z,31.24
2022-08-29T17:36:36.765Z,31.20
2022-08-29T17:39:05.841Z,31.13
2022-08-29T17:41:34.951Z,31.14
2022-08-29T17:44:02.571Z,31.00
2022-08-29T17:46:30.273Z,30.94
2022-08-29T17:48:57.570Z,30.91
2022-08-29T17:51:24.812Z,30.89
2022-08-29T17:53:52.662Z,30.87
2022-08-29T17:56:26.068Z,30.86
2022-08-29T17:58:53.520Z,30.76
2022-08-29T18:01:21.000Z,30.66
2022-08-29T18:03:48.151Z,30.66
2022-08-29T18:06:15.475Z,30.59
2022-08-29T18:08:48.047Z,30.51
2022-08-29T18:11:16.769Z,30.48
2022-08-29T18:13:44.954Z,30.48
2022-08-29T18:16:12.689Z,30.51
2022-08-29T18:18:42.140Z,30.45
2022-08-29T18:21:09.488Z,30.34
2022-08-29T18:23:37.451Z,30.38
2022-08-29T18:26:05.558Z,30.36
2022-08-29T18:28:34.198Z,30.27
2022-08-29T18:31:02.468Z,30.17
2022-08-29T18:33:44.366Z,30.17
2022-08-29T18:36:17.617Z,30.10
2022-08-29T18:38:44.809Z,30.10
2022-08-29T18:41:11.957Z,29.96
2022-08-29T18:43:39.159Z,29.98
2022-08-29T18:46:06.669Z,29.94
2022-08-29T18:48:33.854Z,29.93
2022-08-29T18:51:01.007Z,29.90
2022-08-29T18:53:31.669Z,29.87
2022-08-29T18:56:00.791Z,29.83
2022-08-29T18:58:30.170Z,29.83
2022-08-29T19:00:58.751Z,29.84
2022-08-29T19:03:26.215Z,29.85
2022-08-29T19:05:54.179Z,29.76
2022-08-29T19:08:24.873Z,29.65
2022-08-29T19:10:55.466Z,29.65
2022-08-29T19:13:25.158Z,29.60
2022-08-29T19:16:00.394Z,29.51
2022-08-29T19:18:28.042Z,29.54
2022-08-29T19:21:07.633Z,29.57
2022-08-29T19:23:41.221Z,29.49
2022-08-29T19:26:15.258Z,29.44
2022-08-29T19:28:43.370Z,29.43
2022-08-29T19:31:11.299Z,29.28
2022-08-29T19:33:42.098Z,29.30
2022-08-29T19:36:09.447Z,29.09
2022-08-29T19:38:36.867Z,28.95
2022-08-29T19:41:05.847Z,28.82
2022-08-29T19:43:34.530Z,28.84
2022-08-29T19:46:02.838Z,28.88
2022-08-29T19:48:30.090Z,28.92
2022-08-29T19:50:57.325Z,28.96
2022-08-29T19:53:26.928Z,28.99
2022-08-29T19:55:56.551Z,28.96
2022-08-29T19:58:31.078Z,28.89
2022-08-29T20:01:04.618Z,28.87
2022-08-29T20:03:37.617Z,28.85
2022-08-29T20:06:06.950Z,28.82
2022-08-29T20:08:39.875Z,28.83
2022-08-29T20:11:11.188Z,28.79
2022-08-29T20:13:39.965Z,28.70
2022-08-29T20:16:12.750Z,28.79
2022-08-29T20:18:42.306Z,28.81
2022-08-29T20:21:12.583Z,28.77
2022-08-29T20:23:49.525Z,28.81
2022-08-29T20:26:20.742Z,28.81
2022-08-29T20:28:49.652Z,28.77
2022-08-29T20:31:16.993Z,28.76
2022-08-29T20:33:44.879Z,28.85
2022-08-29T20:36:30.973Z,28.84
2022-08-29T20:38:58.300Z,28.82
2022-08-29T20:41:25.920Z,28.76
2022-08-29T20:43:53.644Z,28.74
2022-08-29T20:46:21.250Z,28.77
2022-08-29T20:48:48.539Z,28.74
2022-08-29T20:51:16.755Z,28.75
2022-08-29T20:53:44.124Z,28.72
2022-08-29T20:56:12.216Z,28.75
2022-08-29T20:58:39.400Z,28.74
2022-08-29T21:01:06.582Z,28.65
2022-08-29T21:03:52.808Z,28.64
2022-08-29T21:06:21.381Z,28.76
2022-08-29T21:08:48.928Z,28.70
2022-08-29T21:11:16.528Z,28.67
2022-08-29T21:13:43.794Z,28.62
2022-08-29T21:16:11.665Z,28.54
2022-08-29T21:18:39.597Z,28.47
2022-08-29T21:21:07.319Z,28.47
2022-08-29T21:23:34.518Z,28.38
2022-08-29T21:26:02.068Z,28.47
2022-08-29T21:28:32.947Z,28.49
2022-08-29T21:31:14.013Z,28.53
2022-08-29T21:33:44.592Z,28.50
2022-08-29T21:36:14.807Z,28.45
2022-08-29T21:38:42.051Z,28.44
2022-08-29T21:41:13.340Z,28.37
2022-08-29T21:43:41.253Z,28.37
2022-08-29T21:46:29.547Z,28.38
2022-08-29T21:49:02.413Z,28.35
2022-08-29T21:51:31.601Z,28.38
2022-08-29T21:53:59.851Z,28.29
2022-08-29T21:56:29.763Z,28.34
2022-08-29T21:58:57.372Z,28.36
2022-08-29T22:01:27.927Z,28.32
2022-08-29T22:03:56.198Z,28.37
2022-08-29T22:06:23.909Z,28.38
2022-08-29T22:08:56.393Z,28.36
2022-08-29T22:11:37.172Z,28.29
2022-08-29T22:14:06.779Z,28.36
2022-08-29T22:16:35.663Z,28.37
2022-08-29T22:19:14.539Z,28.29
2022-08-29T22:21:51.880Z,28.21
2022-08-29T22:24:19.223Z,28.18
2022-08-29T22:26:47.388Z,28.26
2022-08-29T22:29:16.255Z,28.23
2022-08-29T22:31:44.853Z,28.23
2022-08-29T22:34:14.428Z,28.26
2022-08-29T22:36:42.378Z,28.14
2022-08-29T22:39:10.732Z,28.12
2022-08-29T22:41:38.307Z,28.12
2022-08-29T22:46:54.137Z,28.17
2022-08-29T22:49:21.478Z,28.15
2022-08-29T22:51:49.097Z,28.05
2022-08-29T22:54:35.012Z,27.94
2022-08-29T22:57:07.495Z,27.90
2022-08-29T22:59:35.622Z,27.85
2022-08-29T23:02:04.170Z,27.86
2022-08-29T23:04:35.496Z,27.76
2022-08-29T23:07:22.281Z,27.71
2022-08-29T23:09:56.597Z,27.68
2022-08-29T23:12:27.356Z,27.73
2022-08-29T23:14:54.765Z,27.83
2022-08-29T23:17:24.946Z,27.92
2022-08-29T23:19:52.431Z,27.92
2022-08-29T23:22:23.566Z,27.92
2022-08-29T23:24:57.610Z,27.78
2022-08-29T23:27:28.799Z,27.82
2022-08-29T23:29:57.068Z,27.82
2022-08-29T23:32:33.237Z,27.78
2022-08-29T23:35:05.843Z,27.85
2022-08-29T23:37:39.108Z,27.85
2022-08-29T23:40:11.897Z,27.87
2022-08-29T23:42:39.075Z,27.87
2022-08-29T23:45:07.034Z,27.88
2022-08-29T23:47:35.535Z,27.98
2022-08-29T23:50:04.819Z,28.03
2022-08-29T23:52:32.163Z,27.99
2022-08-29T23:55:00.818Z,27.97
2022-08-29T23:57:28.019Z,27.95
